Time;durP1;ratioP1;P1;durP2;ratioP2;P2;SDS_P1;SDS_P2;PMS_P1;PMS_P2;Temp;Humidity;BMP_temperature;BMP_pressure;BME280_temperature;BME280_humidity;BME280_pressure;Samples;Min_cycle;Max_cycle;Signal;HPM_P1;HPM_P2
2022/05/18 00:00:27;;;;;;;4.65;2.70;;;24.70;53.30;26.20;101128.00;;;;4987275;28;20905;-51
2022/05/18 00:02:56;;;;;;;2.70;2.50;;;24.60;53.20;26.20;101133.00;;;;4987093;28;20179;-50
2022/05/18 00:05:22;;;;;;;2.90;2.60;;;24.60;53.30;26.20;101132.00;;;;4987631;28;20285;-50
2022/05/18 00:07:48;;;;;;;4.50;2.60;;;24.60;53.20;26.20;101137.00;;;;4987081;28;20230;-50
2022/05/18 00:10:13;;;;;;;3.80;2.50;;;24.50;53.20;26.20;101129.00;;;;4987615;28;20677;-49
2022/05/18 00:12:44;;;;;;;2.67;2.43;;;24.50;53.30;26.10;101138.00;;;;4987635;28;20843;-50
2022/05/18 00:15:10;;;;;;;5.70;2.88;;;24.50;53.40;26.10;101136.00;;;;4987790;28;20210;-50
2022/05/18 00:17:36;;;;;;;2.90;2.53;;;24.50;53.40;26.10;101140.00;;;;4987673;28;20672;-50
2022/05/18 00:20:01;;;;;;;2.70;2.50;;;24.50;53.50;26.10;101150.00;;;;4987528;28;20192;-50
2022/05/18 00:22:27;;;;;;;3.73;2.70;;;24.50;53.40;26.10;101133.00;;;;4987605;28;20165;-51
2022/05/18 00:24:53;;;;;;;4.15;2.50;;;24.50;53.50;26.10;101143.00;;;;4987372;28;20607;-51
2022/05/18 00:27:18;;;;;;;3.60;2.60;;;24.50;53.50;26.00;101133.00;;;;4987088;28;20180;-51
2022/05/18 00:29:44;;;;;;;2.87;2.53;;;24.50;53.50;26.00;101156.00;;;;4987118;28;20192;-51
2022/05/18 00:32:10;;;;;;;3.20;2.63;;;24.40;53.50;26.00;101151.00;;;;4987300;28;20179;-50
2022/05/18 00:34:35;;;;;;;2.50;2.30;;;24.40;53.60;26.00;101156.00;;;;4987477;28;20184;-51
2022/05/18 00:37:01;;;;;;;3.92;2.40;;;24.40;53.50;26.00;101164.00;;;;4987159;28;20641;-51
2022/05/18 00:39:27;;;;;;;3.63;2.70;;;24.40;53.50;26.00;101147.00;;;;4986727;28;20231;-51
2022/05/18 00:41:52;;;;;;;3.60;2.80;;;24.40;53.50;26.00;101163.00;;;;4987958;28;20280;-50
2022/05/18 00:44:18;;;;;;;2.60;2.40;;;24.40;53.80;25.90;101157.00;;;;4988438;28;20200;-50
2022/05/18 00:46:44;;;;;;;3.53;2.63;;;24.40;54.10;25.90;101159.00;;;;4988593;28;20169;-51
2022/05/18 00:49:10;;;;;;;3.13;2.72;;;24.40;53.80;25.90;101169.00;;;;4986956;28;20677;-53
2022/05/18 00:51:50;;;;;;;3.30;2.60;;;24.40;53.90;25.90;101162.00;;;;4987871;28;20180;-50
2022/05/18 00:54:20;;;;;;;5.07;2.70;;;24.40;53.80;25.90;101158.00;;;;4988890;28;20156;-50
2022/05/18 00:57:17;;;;;;;3.60;2.60;;;24.30;53.70;25.90;101162.00;;;;4970580;28;20179;-51
2022/05/18 00:59:53;;;;;;;3.00;2.50;;;24.30;53.70;25.90;101164.00;;;;4986190;28;20712;-51
2022/05/18 01:02:19;;;;;;;4.33;2.73;;;24.40;53.80;25.80;101156.00;;;;4970719;28;20222;-51
2022/05/18 01:04:44;;;;;;;3.17;2.53;;;24.30;53.70;25.80;101159.00;;;;4986798;28;20250;-50
2022/05/18 01:07:17;;;;;;;3.17;2.83;;;24.40;53.80;25.80;101166.00;;;;4989316;28;20168;-50
2022/05/18 01:09:45;;;;;;;4.77;2.70;;;24.30;53.70;25.80;101106.00;;;;4974899;28;20242;-50
2022/05/18 01:12:15;;;;;;;2.90;2.70;;;24.30;53.80;25.80;101169.00;;;;4989037;28;20218;-52
2022/05/18 01:15:02;;;;;;;3.50;2.97;;;24.30;53.80;25.80;101170.00;;;;4989282;28;20172;-51
2022/05/18 01:17:31;;;;;;;3.47;2.63;;;24.30;53.70;25.80;101184.00;;;;4984523;28;20278;-49
2022/05/18 01:20:01;;;;;;;3.60;2.70;;;24.30;53.80;25.80;101183.00;;;;4969433;28;20199;-52
2022/05/18 01:22:42;;;;;;;3.77;2.70;;;24.30;53.70;25.80;101172.00;;;;4970410;28;20164;-50
2022/05/18 01:25:36;;;;;;;3.43;2.80;;;24.30;53.80;25.70;101179.00;;;;4971136;28;20196;-50
2022/05/18 01:28:02;;;;;;;4.53;2.80;;;24.30;53.80;25.70;101181.00;;;;4985441;28;20172;-50
2022/05/18 01:30:28;;;;;;;3.27;2.70;;;24.20;53.80;25.70;101179.00;;;;4985511;28;20168;-51
2022/05/18 01:32:56;;;;;;;3.93;2.83;;;24.20;53.90;25.70;101180.00;;;;4986694;28;20172;-51
2022/05/18 01:35:30;;;;;;;3.13;2.80;;;24.20;54.00;25.70;101186.00;;;;4985855;28;20177;-51
2022/05/18 01:37:59;;;;;;;3.33;2.57;;;24.20;53.90;25.70;101186.00;;;;4986476;28;20171;-52
2022/05/18 01:40:42;;;;;;;2.93;2.57;;;24.20;54.00;25.70;101194.00;;;;4986629;28;20218;-51
2022/05/18 01:43:27;;;;;;;3.10;2.80;;;24.20;54.00;25.70;101195.00;;;;4985699;28;20180;-51
2022/05/18 01:45:56;;;;;;;2.77;2.53;;;24.20;54.10;25.60;101200.00;;;;4985521;28;20172;-51
2022/05/18 01:48:26;;;;;;;3.10;2.57;;;24.20;54.00;25.60;101195.00;;;;4986591;28;20189;-50
2022/05/18 01:50:51;;;;;;;3.20;2.60;;;24.20;54.00;25.60;101193.00;;;;4986833;28;20211;-51
2022/05/18 01:53:17;;;;;;;3.10;2.50;;;24.20;54.00;25.60;101196.00;;;;4985961;28;20175;-51
2022/05/18 01:55:43;;;;;;;2.77;2.57;;;24.10;54.10;25.60;101194.00;;;;4990160;28;20311;-52
2022/05/18 01:58:11;;;;;;;3.47;2.60;;;24.10;54.10;25.60;101189.00;;;;4989698;28;20188;-50
2022/05/18 02:00:37;;;;;;;3.43;2.67;;;24.10;54.10;25.60;101188.00;;;;4990082;28;20172;-51
2022/05/18 02:03:02;;;;;;;3.77;2.70;;;24.10;54.10;25.60;101193.00;;;;4990210;28;20530;-51
2022/05/18 02:05:28;;;;;;;3.00;2.60;;;24.10;54.10;25.50;101188.00;;;;4989975;28;20267;-51
2022/05/18 02:07:55;;;;;;;3.17;2.87;;;24.10;54.20;25.50;101185.00;;;;4988423;28;20180;-52
2022/05/18 02:10:20;;;;;;;3.00;2.50;;;24.00;54.30;25.50;101185.00;;;;4989726;28;20712;-50
2022/05/18 02:12:46;;;;;;;3.13;2.83;;;24.00;54.20;25.50;101189.00;;;;4990285;28;20165;-51
2022/05/18 02:15:12;;;;;;;3.20;2.70;;;24.00;54.90;25.50;101188.00;;;;4989999;28;20180;-52
2022/05/18 02:17:38;;;;;;;3.20;2.90;;;24.00;54.30;25.40;101199.00;;;;4988860;28;20169;-51
2022/05/18 02:20:05;;;;;;;3.47;2.40;;;24.00;54.30;25.40;101188.00;;;;4989785;28;20200;-52
2022/05/18 02:22:31;;;;;;;3.43;2.70;;;23.90;54.40;25.40;101186.00;;;;4988618;28;20184;-51
2022/05/18 02:24:56;;;;;;;3.23;2.70;;;23.90;54.30;25.40;101193.00;;;;4989712;28;20204;-51
2022/05/18 02:27:22;;;;;;;4.03;2.67;;;23.80;54.30;25.40;101192.00;;;;4988425;28;20180;-51
2022/05/18 02:29:48;;;;;;;3.03;2.50;;;23.90;54.40;25.30;101195.00;;;;4989485;28;20534;-51
2022/05/18 02:32:14;;;;;;;3.47;2.70;;;23.90;54.50;25.30;101186.00;;;;4989804;28;20250;-51
2022/05/18 02:34:39;;;;;;;5.07;2.80;;;23.90;54.50;25.30;101186.00;;;;4989323;28;20176;-51
2022/05/18 02:37:05;;;;;;;4.20;2.80;;;23.80;54.60;25.30;101177.00;;;;4989031;28;20184;-51
2022/05/18 02:39:31;;;;;;;2.93;2.63;;;23.80;54.60;25.30;101178.00;;;;4989100;28;20203;-51
2022/05/18 02:41:56;;;;;;;4.40;2.90;;;23.70;54.60;25.30;101185.00;;;;4989429;28;20176;-51
2022/05/18 02:44:22;;;;;;;3.27;2.80;;;23.80;54.60;25.30;101180.00;;;;4989487;28;20557;-52
2022/05/18 02:46:48;;;;;;;3.13;2.83;;;23.80;54.60;25.30;101190.00;;;;4989449;28;20172;-51
2022/05/18 02:49:15;;;;;;;2.90;2.60;;;23.80;54.50;25.20;101187.00;;;;5014816;28;20188;-50
2022/05/18 02:51:40;;;;;;;3.17;2.70;;;23.80;54.60;25.20;101186.00;;;;5009030;28;20247;-51
2022/05/18 02:56:05;;;;;;;2.80;2.60;;;23.70;54.50;25.20;101192.00;;;;4994931;28;20829;-51
2022/05/18 02:56:53;;;;;;;3.83;2.67;;;23.70;54.60;25.20;101190.00;;;;4990156;28;20287;-51
2022/05/18 02:59:20;;;;;;;3.00;2.70;;;23.70;54.60;25.20;101182.00;;;;5003356;28;20572;-51
2022/05/18 03:01:46;;;;;;;2.97;2.70;;;23.70;54.70;25.20;101186.00;;;;4989118;28;20234;-51
2022/05/18 03:04:12;;;;;;;3.30;2.80;;;23.60;54.60;25.10;101188.00;;;;4988795;28;20616;-51
2022/05/18 03:06:38;;;;;;;3.40;2.80;;;23.60;54.60;25.10;101189.00;;;;4988375;28;20164;-51
2022/05/18 03:09:04;;;;;;;6.27;3.10;;;23.60;54.70;25.10;101179.00;;;;4988781;28;20575;-51
2022/05/18 03:11:30;;;;;;;7.00;2.87;;;23.60;54.90;25.10;101183.00;;;;4989017;28;20180;-51
2022/05/18 03:13:55;;;;;;;4.13;2.93;;;23.50;54.80;25.00;101190.00;;;;4989002;28;20172;-51
2022/05/18 03:16:22;;;;;;;7.23;2.80;;;23.50;54.90;25.00;101199.00;;;;4988918;28;20181;-50
2022/05/18 03:18:48;;;;;;;3.83;2.80;;;23.50;55.30;25.00;101189.00;;;;4971012;28;20192;-49
2022/05/18 03:23:58;;;;;;;4.30;2.70;;;23.40;55.40;24.90;101191.00;;;;4988562;28;20282;-50
2022/05/18 03:26:24;;;;;;;3.30;2.80;;;23.50;55.40;24.90;101194.00;;;;4988710;28;20243;-49
2022/05/18 03:28:51;;;;;;;3.60;2.60;;;23.40;55.20;24.90;101193.00;;;;4988151;28;20220;-50
2022/05/18 03:31:17;;;;;;;3.53;2.80;;;23.40;55.30;24.90;101193.00;;;;4986818;28;20169;-50
2022/05/18 03:33:43;;;;;;;3.20;2.90;;;23.30;55.40;24.90;101199.00;;;;4987320;28;20271;-50
2022/05/18 03:36:10;;;;;;;3.90;2.90;;;23.30;55.40;24.90;101200.00;;;;4988216;28;20662;-51
2022/05/18 03:38:36;;;;;;;3.13;2.80;;;23.40;55.30;24.80;101209.00;;;;4988052;28;20192;-50
2022/05/18 03:41:02;;;;;;;3.17;2.80;;;23.40;55.20;24.80;101198.00;;;;4988158;28;20195;-51
2022/05/18 03:43:29;;;;;;;3.63;2.70;;;23.40;55.30;24.80;101201.00;;;;4988106;28;20183;-50
2022/05/18 03:45:54;;;;;;;3.10;2.80;;;23.30;55.20;24.80;101200.00;;;;4986994;28;20393;-51
2022/05/18 03:48:20;;;;;;;3.60;2.80;;;23.30;55.20;24.80;101201.00;;;;4982067;28;20707;-49
2022/05/18 03:50:47;;;;;;;5.60;3.03;;;23.30;55.30;24.80;101201.00;;;;4980639;28;20176;-49
2022/05/18 03:53:13;;;;;;;3.13;2.83;;;23.30;55.20;24.70;101205.00;;;;4987553;28;20816;-51
2022/05/18 03:55:40;;;;;;;3.17;2.80;;;23.30;55.10;24.70;101210.00;;;;4987861;28;20187;-51
2022/05/18 03:58:06;;;;;;;3.20;2.90;;;23.30;55.20;24.70;101207.00;;;;4987128;28;20193;-51
2022/05/18 04:00:33;;;;;;;3.23;2.70;;;23.20;55.20;24.70;101202.00;;;;4987857;28;20207;-51
2022/05/18 04:03:00;;;;;;;3.50;3.03;;;23.20;55.30;24.70;101206.00;;;;4987740;28;20187;-51
2022/05/18 04:05:25;;;;;;;3.37;3.00;;;23.20;55.50;24.70;101211.00;;;;4986318;28;20263;-51
2022/05/18 04:07:51;;;;;;;3.03;2.73;;;23.20;55.50;24.70;101218.00;;;;4988412;28;20169;-50
2022/05/18 04:10:17;;;;;;;4.93;2.93;;;23.20;55.50;24.70;101218.00;;;;4994967;28;20169;-51
2022/05/18 04:12:43;;;;;;;4.57;2.97;;;23.20;55.40;24.60;101230.00;;;;4991470;28;20175;-50
2022/05/18 04:15:11;;;;;;;3.33;2.77;;;23.20;55.30;24.60;101214.00;;;;4987609;28;20204;-50
2022/05/18 04:17:37;;;;;;;4.23;3.00;;;23.30;55.30;24.60;101225.00;;;;4986381;28;20168;-50
2022/05/18 04:20:04;;;;;;;3.83;2.87;;;23.30;55.10;24.60;101234.00;;;;4986846;28;20278;-51
2022/05/18 04:22:29;;;;;;;5.47;2.70;;;23.30;55.30;24.60;101239.00;;;;4987625;28;20175;-51
2022/05/18 04:24:55;;;;;;;3.03;2.73;;;23.30;55.30;24.60;101233.00;;;;4987193;28;20192;-51
2022/05/18 04:27:21;;;;;;;3.90;2.60;;;23.30;55.20;24.60;101239.00;;;;4986862;28;20172;-51
2022/05/18 04:29:46;;;;;;;3.40;2.97;;;23.30;55.20;24.60;101243.00;;;;4989683;28;20185;-51
2022/05/18 04:32:12;;;;;;;4.90;3.00;;;23.30;55.10;24.60;101228.00;;;;4988659;28;20184;-50
2022/05/18 04:34:38;;;;;;;4.80;2.93;;;23.30;55.20;24.60;101239.00;;;;4987238;28;20204;-49
2022/05/18 04:37:04;;;;;;;3.43;3.13;;;23.30;55.30;24.60;101173.00;;;;4987039;28;20180;-50
2022/05/18 04:39:30;;;;;;;3.30;2.90;;;23.20;55.50;24.60;101177.00;;;;4998670;28;20215;-51
2022/05/18 04:41:55;;;;;;;3.43;3.13;;;23.20;55.60;24.60;101241.00;;;;4989537;28;20633;-51
2022/05/18 04:44:21;;;;;;;4.33;2.87;;;23.20;55.80;24.50;101237.00;;;;4986411;28;20196;-51
2022/05/18 04:46:47;;;;;;;7.47;3.17;;;23.10;55.90;24.50;101244.00;;;;4986451;28;20168;-51
2022/05/18 04:49:13;;;;;;;4.13;2.90;;;23.10;56.00;24.50;101248.00;;;;4985985;28;20596;-50
2022/05/18 04:51:38;;;;;;;6.97;3.17;;;23.00;56.10;24.40;101248.00;;;;4985464;28;20214;-51
2022/05/18 04:54:04;;;;;;;6.90;3.00;;;23.00;56.20;24.40;101242.00;;;;4987403;28;20255;-49
2022/05/18 04:56:30;;;;;;;3.93;3.00;;;23.00;56.20;24.40;101242.00;;;;4987877;28;20675;-50
2022/05/18 04:58:56;;;;;;;5.60;3.17;;;23.00;56.20;24.40;101250.00;;;;4987274;28;20192;-49
2022/05/18 05:01:24;;;;;;;3.80;2.73;;;23.00;56.30;24.40;101260.00;;;;4988432;28;20183;-50
2022/05/18 05:03:50;;;;;;;3.70;2.93;;;23.00;56.20;24.40;101261.00;;;;4989310;28;20196;-50
2022/05/18 05:06:15;;;;;;;4.13;2.93;;;23.00;56.10;24.40;101269.00;;;;4981117;28;20176;-51
2022/05/18 05:08:41;;;;;;;6.47;2.90;;;23.10;56.10;24.40;101260.00;;;;4976170;28;20201;-51
2022/05/18 05:11:07;;;;;;;3.47;2.90;;;23.10;55.90;24.40;101272.00;;;;4969310;28;20177;-50
2022/05/18 05:13:33;;;;;;;3.77;2.80;;;23.20;55.80;24.40;101272.00;;;;4967099;28;20252;-51
2022/05/18 05:16:06;;;;;;;3.37;2.83;;;23.20;55.70;24.40;101277.00;;;;4965892;28;20173;-50
2022/05/18 05:18:32;;;;;;;5.37;3.03;;;23.20;55.80;24.40;101277.00;;;;4966765;28;20208;-51
2022/05/18 05:20:58;;;;;;;4.00;2.70;;;23.20;55.70;24.40;101277.00;;;;4976613;28;20184;-51
2022/05/18 05:23:25;;;;;;;3.60;2.90;;;23.20;55.80;24.40;101279.00;;;;4983177;28;20244;-51
2022/05/18 05:25:51;;;;;;;3.30;2.93;;;23.20;55.90;24.40;101281.00;;;;4976767;28;20211;-52
2022/05/18 05:28:17;;;;;;;3.73;2.97;;;23.20;56.00;24.30;101291.00;;;;4966755;28;20192;-51
2022/05/18 05:30:43;;;;;;;3.13;2.87;;;23.10;56.20;24.30;101287.00;;;;4970571;28;20177;-51
2022/05/18 05:33:08;;;;;;;4.27;3.20;;;23.10;56.20;24.30;101282.00;;;;4970295;28;20181;-51
2022/05/18 05:35:34;;;;;;;3.30;3.00;;;23.10;56.30;24.30;101287.00;;;;4970413;28;20209;-51
2022/05/18 05:38:00;;;;;;;3.37;3.07;;;23.10;56.30;24.30;101285.00;;;;4969065;28;20651;-50
2022/05/18 05:40:26;;;;;;;4.03;2.90;;;23.10;56.20;24.30;101290.00;;;;4970573;28;20181;-51
2022/05/18 05:42:51;;;;;;;3.00;2.70;;;23.10;56.30;24.30;101285.00;;;;4970249;28;20252;-50
2022/05/18 05:45:17;;;;;;;3.77;3.23;;;23.10;56.50;24.30;101296.00;;;;4968855;28;20212;-51
2022/05/18 05:47:43;;;;;;;4.20;3.50;;;23.10;56.40;24.30;101294.00;;;;4969547;28;20197;-51
2022/05/18 05:50:09;;;;;;;4.07;3.00;;;23.10;56.70;24.20;101295.00;;;;4970019;28;20197;-51
2022/05/18 05:52:34;;;;;;;3.73;2.97;;;23.10;56.70;24.20;101281.00;;;;4988217;28;20672;-51
2022/05/18 05:55:00;;;;;;;2.90;2.70;;;23.10;56.60;24.20;101287.00;;;;4989453;28;20187;-51
2022/05/18 05:57:26;;;;;;;2.97;2.67;;;23.10;56.60;24.20;101280.00;;;;4988696;28;20181;-50
2022/05/18 05:59:52;;;;;;;5.17;3.00;;;23.20;56.30;24.20;101287.00;;;;4989279;28;20280;-51
2022/05/18 06:02:19;;;;;;;3.80;3.40;;;23.20;56.50;24.20;101288.00;;;;4988975;28;20180;-51
2022/05/18 06:04:44;;;;;;;3.00;2.77;;;23.10;56.50;24.20;101295.00;;;;4989014;28;20707;-51
2022/05/18 06:07:10;;;;;;;4.03;3.13;;;23.20;56.50;24.20;101295.00;;;;4992543;28;20180;-51
2022/05/18 06:09:36;;;;;;;3.23;2.87;;;23.20;56.10;24.20;101279.00;;;;4991650;28;20705;-51
2022/05/18 06:12:02;;;;;;;3.30;2.80;;;23.20;56.00;24.20;101292.00;;;;4991099;28;20207;-51
2022/05/18 06:14:28;;;;;;;3.47;3.10;;;23.20;56.10;24.20;101288.00;;;;4988574;28;20219;-50
2022/05/18 06:16:54;;;;;;;4.17;2.97;;;23.20;56.00;24.20;101291.00;;;;4989231;28;20231;-50
2022/05/18 06:19:19;;;;;;;4.73;2.93;;;23.20;55.80;24.20;101289.00;;;;5005652;28;20442;-50
2022/05/18 06:21:47;;;;;;;3.63;2.87;;;23.20;55.80;24.20;101288.00;;;;5012123;28;20203;-51
2022/05/18 06:24:14;;;;;;;3.30;2.77;;;23.20;56.70;24.20;101289.00;;;;4999121;28;20211;-49
2022/05/18 06:26:39;;;;;;;3.60;2.90;;;23.20;56.30;24.20;101312.00;;;;4989516;28;20176;-50
2022/05/18 06:29:05;;;;;;;3.33;2.77;;;23.20;56.30;24.20;101302.00;;;;4988272;28;20199;-50
2022/05/18 06:31:31;;;;;;;3.27;2.97;;;23.20;56.10;24.20;101304.00;;;;4988926;28;20181;-51
2022/05/18 06:33:57;;;;;;;6.27;2.80;;;23.20;56.30;24.20;101301.00;;;;4988663;28;20570;-50
2022/05/18 06:36:23;;;;;;;3.63;2.63;;;23.20;56.50;24.20;101310.00;;;;4987424;28;20190;-49
2022/05/18 06:38:49;;;;;;;3.27;2.97;;;23.20;56.60;24.20;101306.00;;;;4988102;28;20650;-49
2022/05/18 06:41:23;;;;;;;3.20;2.90;;;23.20;56.70;24.20;101308.00;;;;4987814;28;20183;-53
2022/05/18 06:43:55;;;;;;;5.87;3.17;;;23.20;56.60;24.30;101316.00;;;;4988706;28;20180;-52
2022/05/18 06:46:21;;;;;;;3.00;2.70;;;23.20;56.50;24.30;101306.00;;;;4988547;28;20173;-49
2022/05/18 06:48:48;;;;;;;6.17;3.50;;;23.30;56.80;24.30;101300.00;;;;4987638;28;20187;-49
2022/05/18 06:51:17;;;;;;;3.83;2.93;;;23.20;57.20;24.30;101301.00;;;;4988619;28;20179;-50
2022/05/18 06:53:43;;;;;;;4.40;2.80;;;23.30;56.80;24.30;101305.00;;;;4988274;28;20273;-50
2022/05/18 06:56:09;;;;;;;4.30;2.80;;;23.20;56.50;24.30;101306.00;;;;4988841;28;20241;-51
2022/05/18 06:58:34;;;;;;;3.63;2.80;;;23.20;56.80;24.30;101304.00;;;;4988834;28;20191;-51
2022/05/18 07:01:01;;;;;;;3.27;2.90;;;23.20;56.70;24.30;101285.00;;;;4988812;28;20599;-52
2022/05/18 07:03:27;;;;;;;3.30;3.00;;;23.30;56.90;24.30;101298.00;;;;4989642;28;20760;-51
2022/05/18 07:05:53;;;;;;;4.97;3.20;;;23.20;56.90;24.30;101313.00;;;;4989021;28;20605;-50
2022/05/18 07:08:19;;;;;;;4.57;2.87;;;23.20;57.00;24.30;101310.00;;;;4987745;28;20185;-52
2022/05/18 07:10:44;;;;;;;4.60;2.90;;;23.20;57.10;24.30;101307.00;;;;4989641;28;20165;-51
2022/05/18 07:13:16;;;;;;;3.20;2.90;;;23.30;56.90;24.30;101314.00;;;;4988624;28;20165;-51
2022/05/18 07:15:45;;;;;;;3.27;2.97;;;23.30;57.10;24.30;101309.00;;;;4901796;28;20176;-51
2022/05/18 07:18:11;;;;;;;3.47;2.90;;;23.30;57.20;24.30;101302.00;;;;4967110;28;20193;-51
2022/05/18 07:20:37;;;;;;;4.50;2.97;;;23.30;57.30;24.30;101310.00;;;;4978641;28;20732;-50
2022/05/18 07:23:03;;;;;;;4.50;2.97;;;23.30;57.30;24.40;101310.00;;;;4988237;28;20688;-51
2022/05/18 07:25:28;;;;;;;3.50;2.60;;;23.30;57.30;24.40;101308.00;;;;4987480;28;20700;-50
2022/05/18 07:27:54;;;;;;;3.37;2.80;;;23.30;57.30;24.40;101311.00;;;;4987371;28;20156;-51
2022/05/18 07:30:20;;;;;;;3.17;2.97;;;23.30;57.30;24.30;101323.00;;;;4987722;28;20171;-50
2022/05/18 07:32:45;;;;;;;3.47;2.93;;;23.30;57.00;24.30;101308.00;;;;4987029;28;20234;-51
2022/05/18 07:35:11;;;;;;;4.00;2.90;;;23.30;57.10;24.30;101316.00;;;;4987633;28;20693;-51
2022/05/18 07:37:37;;;;;;;3.80;3.03;;;23.30;57.30;24.30;101314.00;;;;4987263;28;20895;-51
2022/05/18 07:40:03;;;;;;;4.47;3.20;;;23.20;57.20;24.30;101313.00;;;;4987297;28;20215;-51
2022/05/18 07:42:29;;;;;;;4.13;3.03;;;23.20;57.10;24.30;101306.00;;;;4986821;28;20183;-51
2022/05/18 07:44:55;;;;;;;3.67;3.10;;;23.30;56.90;24.30;101313.00;;;;4987682;28;20196;-51
2022/05/18 07:47:31;;;;;;;4.27;3.07;;;23.30;57.10;24.30;101307.00;;;;4989722;28;20179;-50
2022/05/18 07:49:56;;;;;;;6.77;3.00;;;23.30;57.30;24.30;101307.00;;;;4987572;28;20672;-50
2022/05/18 07:52:22;;;;;;;4.83;2.90;;;23.30;57.70;24.40;101306.00;;;;4985684;28;20172;-51
2022/05/18 07:54:48;;;;;;;3.10;2.80;;;23.30;57.70;24.40;101312.00;;;;4986068;28;20207;-50
2022/05/18 07:57:13;;;;;;;5.20;3.30;;;23.40;57.80;24.40;101301.00;;;;4986662;28;20180;-51
2022/05/18 07:59:39;;;;;;;7.13;3.00;;;23.40;57.40;24.40;101306.00;;;;4987034;28;20225;-49
2022/05/18 08:02:05;;;;;;;4.90;3.30;;;23.40;58.10;24.40;101304.00;;;;4986001;28;20268;-50
2022/05/18 08:04:30;;;;;;;4.83;3.10;;;23.50;58.30;24.40;101306.00;;;;4987019;28;20560;-50
2022/05/18 08:06:56;;;;;;;4.60;3.20;;;23.50;57.40;24.40;101298.00;;;;4987010;28;20176;-50
2022/05/18 08:09:22;;;;;;;3.93;2.90;;;23.50;57.40;24.50;101308.00;;;;4986510;28;20246;-49
2022/05/18 08:17:18;;;;;;;4.73;2.93;;;23.60;57.80;24.50;101297.00;;;;4966331;28;20185;-54
2022/05/18 08:19:44;;;;;;;4.23;3.00;;;23.60;58.00;24.60;101302.00;;;;4967367;28;20658;-53
2022/05/18 08:22:10;;;;;;;4.80;3.10;;;23.70;57.90;24.60;101284.00;;;;4967210;28;20220;-54
2022/05/18 08:24:36;;;;;;;5.20;3.37;;;23.70;58.90;24.60;101298.00;;;;4967457;28;20299;-55
2022/05/18 08:27:05;;;;;;;8.00;3.97;;;23.70;59.20;24.60;101293.00;;;;4967188;28;20169;-54
2022/05/18 08:29:30;;;;;;;11.67;3.70;;;23.80;60.20;24.70;101301.00;;;;4965681;28;20827;-54
2022/05/18 08:31:56;;;;;;;10.37;3.60;;;23.80;60.40;24.70;101302.00;;;;4984691;28;20199;-54
2022/05/18 08:34:22;;;;;;;9.40;3.90;;;23.80;60.20;24.70;101302.00;;;;4985839;28;20173;-54
2022/05/18 08:36:49;;;;;;;7.97;3.70;;;23.80;60.50;24.80;101297.00;;;;4986469;28;20175;-55
2022/05/18 08:39:14;;;;;;;9.83;3.57;;;23.80;60.70;24.80;101304.00;;;;4986400;28;20342;-54
2022/05/18 08:41:49;;;;;;;9.43;4.07;;;23.80;60.60;24.80;101300.00;;;;4987060;28;20169;-54
2022/05/18 08:44:36;;;;;;;18.70;5.73;;;23.80;60.60;24.80;101304.00;;;;4991437;28;20279;-55
2022/05/18 08:47:46;;;;;;;20.43;6.90;;;23.80;60.70;24.80;101301.00;;;;4985060;28;20215;-55
2022/05/18 08:50:16;;;;;;;26.80;8.43;;;23.90;60.90;24.80;101257.00;;;;4985190;28;20304;-54
2022/05/18 08:53:22;;;;;;;16.83;6.90;;;23.90;60.60;24.90;101302.00;;;;4983697;28;20161;-54
2022/05/18 08:56:08;;;;;;;21.30;8.20;;;23.90;60.50;24.90;101304.00;;;;4984004;28;20331;-54
2022/05/18 08:58:51;;;;;;;18.60;7.50;;;23.90;60.50;24.90;101311.00;;;;4969798;28;20734;-55
2022/05/18 09:01:40;;;;;;;19.13;7.00;;;23.90;60.50;24.90;101308.00;;;;4984945;28;20152;-55
2022/05/18 09:04:45;;;;;;;18.23;7.50;;;24.00;60.50;24.90;101300.00;;;;4971784;28;20364;-55
2022/05/18 09:07:13;;;;;;;16.57;6.57;;;24.00;60.50;24.90;101306.00;;;;4989484;28;20540;-55
2022/05/18 09:10:12;;;;;;;16.90;7.20;;;24.00;60.50;24.90;101301.00;;;;4972997;28;20279;-55
2022/05/18 09:12:43;;;;;;;16.37;6.10;;;24.00;60.30;24.90;101310.00;;;;4989317;28;20199;-55
2022/05/18 09:15:13;;;;;;;12.73;5.80;;;24.00;60.10;25.00;101300.00;;;;4806074;28;20188;-55
2022/05/18 09:17:56;;;;;;;12.47;6.30;;;24.00;60.10;25.00;101304.00;;;;4996706;28;20649;-54
2022/05/18 09:20:29;;;;;;;13.97;5.70;;;24.00;60.00;25.00;101299.00;;;;4997632;28;20195;-54
2022/05/18 09:23:35;;;;;;;11.80;5.70;;;24.00;60.00;25.00;101299.00;;;;4993194;28;20173;-53
2022/05/18 09:26:31;;;;;;;11.07;5.53;;;24.00;60.20;25.00;101300.00;;;;4975943;28;20587;-54
2022/05/18 09:29:23;;;;;;;10.23;5.40;;;24.00;60.30;25.00;101293.00;;;;4990227;28;20251;-54
2022/05/18 09:32:10;;;;;;;10.67;5.63;;;24.10;60.40;25.00;101297.00;;;;4974921;28;20184;-55
2022/05/18 09:34:51;;;;;;;9.77;4.83;;;24.10;60.40;25.10;101293.00;;;;4989458;28;20716;-54
2022/05/18 09:37:47;;;;;;;9.07;4.73;;;24.10;60.50;25.10;101294.00;;;;4988238;28;20247;-55
2022/05/18 09:40:23;;;;;;;11.40;4.80;;;24.10;60.50;25.10;101293.00;;;;4989506;28;20172;-55
2022/05/18 09:43:04;;;;;;;8.70;4.70;;;24.20;60.70;25.10;101289.00;;;;4973539;28;20161;-54
2022/05/18 09:45:31;;;;;;;7.03;4.50;;;24.20;60.80;25.10;101289.00;;;;4973743;28;20245;-55
2022/05/18 09:48:39;;;;;;;9.50;4.63;;;24.20;60.60;25.20;101288.00;;;;4955914;28;20260;-55
2022/05/18 09:51:05;;;;;;;8.80;4.60;;;24.20;60.50;25.20;101290.00;;;;4982827;28;20184;-53
2022/05/18 09:53:31;;;;;;;6.57;4.10;;;24.30;60.70;25.20;101286.00;;;;4972083;28;20242;-54
2022/05/18 09:55:56;;;;;;;7.23;4.27;;;24.30;60.90;25.20;101287.00;;;;4989776;28;20191;-55
2022/05/18 09:58:35;;;;;;;6.97;4.37;;;24.30;60.70;25.20;101289.00;;;;4989832;28;20212;-53
2022/05/18 10:09:42;;;;;;;7.27;4.10;;;24.40;61.10;25.30;101281.00;;;;4988492;28;20242;-53
2022/05/18 10:12:24;;;;;;;5.50;3.77;;;24.40;60.90;25.30;101282.00;;;;4989556;28;20203;-54
2022/05/18 10:14:57;;;;;;;7.20;3.93;;;24.40;61.10;25.30;101276.00;;;;4989821;28;20223;-55
2022/05/18 10:17:34;;;;;;;5.90;3.80;;;24.50;61.10;25.40;101275.00;;;;4972662;28;20164;-55
2022/05/18 10:20:11;;;;;;;5.40;3.77;;;24.50;61.10;25.40;101270.00;;;;4972391;28;20191;-55
2022/05/18 10:22:40;;;;;;;4.60;3.60;;;24.50;61.30;25.30;101284.00;;;;4988138;28;20226;-53
2022/05/18 10:25:49;;;;;;;6.43;3.63;;;24.50;61.10;25.40;101271.00;;;;4987933;28;20212;-55
2022/05/18 10:28:27;;;;;;;5.37;3.50;;;24.60;61.30;25.50;101276.00;;;;4986092;28;20315;-54
2022/05/18 10:30:58;;;;;;;4.43;3.23;;;24.60;61.50;25.50;101262.00;;;;4989275;28;20170;-55
2022/05/18 10:33:37;;;;;;;3.97;3.23;;;24.60;61.30;25.50;101270.00;;;;4989413;28;20179;-53
2022/05/18 10:36:11;;;;;;;4.30;3.20;;;24.70;61.30;25.50;101264.00;;;;4987734;28;20168;-55
2022/05/18 10:38:38;;;;;;;4.23;3.30;;;24.70;61.30;25.60;101262.00;;;;4988885;28;20803;-55
2022/05/18 10:41:03;;;;;;;4.33;3.30;;;24.70;61.10;25.40;101257.00;;;;5004240;28;20211;-53
2022/05/18 10:43:38;;;;;;;4.63;3.27;;;24.70;61.10;25.60;101256.00;;;;4989560;28;20337;-53
2022/05/18 10:46:36;;;;;;;4.00;3.20;;;24.70;61.10;25.60;101231.00;;;;4988989;28;20681;-53
2022/05/18 10:49:24;;;;;;;4.40;3.03;;;24.80;61.10;25.70;101248.00;;;;4986637;28;20641;-54
2022/05/18 10:51:50;;;;;;;4.37;3.00;;;24.80;61.20;25.70;101247.00;;;;4974315;28;20176;-53
2022/05/18 10:54:25;;;;;;;4.10;3.07;;;24.80;61.20;25.70;101241.00;;;;4987310;28;20191;-55
2022/05/18 10:56:53;;;;;;;3.90;3.00;;;24.80;61.20;25.70;101237.00;;;;4988204;28;20660;-54
2022/05/18 10:59:42;;;;;;;3.10;2.80;;;24.90;61.50;25.80;101237.00;;;;4986669;28;20207;-55
2022/05/18 11:02:14;;;;;;;4.23;3.03;;;24.90;61.40;25.80;101226.00;;;;4988244;28;20561;-54
2022/05/18 11:05:11;;;;;;;3.65;2.75;;;24.90;61.50;25.80;101229.00;;;;4973249;28;20192;-54
2022/05/18 11:07:37;;;;;;;3.20;2.90;;;24.90;61.30;25.80;101230.00;;;;4984588;28;20657;-55
2022/05/18 11:10:03;;;;;;;3.77;3.20;;;25.00;61.40;25.90;101223.00;;;;4986747;28;20194;-55
2022/05/18 11:12:51;;;;;;;3.80;2.80;;;25.00;61.30;25.90;101222.00;;;;4988002;28;20180;-54
2022/05/18 11:15:51;;;;;;;3.80;2.85;;;25.00;61.20;25.90;101219.00;;;;4987023;28;20665;-54